Terminal Aerodrome Forecast
Issued by NWS Charleston, WV

Current Version | Previous Version | Graphics & Text | Print | Product List | Glossary On
Versions: 1 2 3 4 5 6 7 8 9 10 11 12 13 14 15 16 17 18 19 20 21 22 23 24 25 26 27
000
FTUS41 KRLX 201100
TAFCRW
TAF
KCRW 201126Z 2012/2112 00000KT 6SM SHRA BR VCTS OVC040CB
     FM201400 VRB03KT 6SM BR VCTS BKN035CB
     FM201600 19005KT P6SM VCTS BKN040CB
     FM202300 23005KT P6SM BKN050
     FM210200 00000KT 6SM BR BKN100
     FM210400 00000KT 3SM BR BKN090
     FM211000 00000KT 1SM BR BKN001
     FM211100 00000KT 1/2SM FG VV001=

USA.gov is the U.S. government's official web portal to all federal, state and local government web resources and services.